sensor_id;sensor_type;location;lat;lon;timestamp;temperature;humidity
36710;DHT22;22694;51.040;3.684;2023-02-11T00:00:08;11.80;77.10
36710;DHT22;22694;51.040;3.684;2023-02-11T00:02:34;11.70;77.10
36710;DHT22;22694;51.040;3.684;2023-02-11T00:05:00;11.70;77.10
36710;DHT22;22694;51.040;3.684;2023-02-11T00:07:33;11.70;77.20
36710;DHT22;22694;51.040;3.684;2023-02-11T00:09:59;11.70;77.20
36710;DHT22;22694;51.040;3.684;2023-02-11T00:12:24;11.70;77.20
36710;DHT22;22694;51.040;3.684;2023-02-11T00:14:50;11.70;77.20
36710;DHT22;22694;51.040;3.684;2023-02-11T00:17:16;11.70;77.30
36710;DHT22;22694;51.040;3.684;2023-02-11T00:19:42;11.70;77.30
36710;DHT22;22694;51.040;3.684;2023-02-11T00:22:08;11.60;77.30
36710;DHT22;22694;51.040;3.684;2023-02-11T00:24:35;11.60;77.30
36710;DHT22;22694;51.040;3.684;2023-02-11T00:27:01;11.60;77.30
36710;DHT22;22694;51.040;3.684;2023-02-11T00:29:27;11.70;77.40
36710;DHT22;22694;51.040;3.684;2023-02-11T00:31:53;11.60;77.30
36710;DHT22;22694;51.040;3.684;2023-02-11T00:34:18;11.60;77.40
36710;DHT22;22694;51.040;3.684;2023-02-11T00:36:44;11.60;77.40
36710;DHT22;22694;51.040;3.684;2023-02-11T00:39:10;11.60;77.40
36710;DHT22;22694;51.040;3.684;2023-02-11T00:41:35;11.60;77.50
36710;DHT22;22694;51.040;3.684;2023-02-11T00:44:02;11.60;77.50
36710;DHT22;22694;51.040;3.684;2023-02-11T00:46:28;11.60;77.60
36710;DHT22;22694;51.040;3.684;2023-02-11T00:48:53;11.50;77.50
36710;DHT22;22694;51.040;3.684;2023-02-11T00:51:23;11.60;77.70
36710;DHT22;22694;51.040;3.684;2023-02-11T00:53:48;11.50;77.60
36710;DHT22;22694;51.040;3.684;2023-02-11T00:56:14;11.60;77.70
36710;DHT22;22694;51.040;3.684;2023-02-11T00:58:40;11.60;77.90
36710;DHT22;22694;51.040;3.684;2023-02-11T01:01:06;11.50;78.40
36710;DHT22;22694;51.040;3.684;2023-02-11T01:03:32;11.60;78.70
36710;DHT22;22694;51.040;3.684;2023-02-11T01:05:58;11.60;78.30
36710;DHT22;22694;51.040;3.684;2023-02-11T01:08:24;11.50;78.00
36710;DHT22;22694;51.040;3.684;2023-02-11T01:11:06;11.50;78.00
36710;DHT22;22694;51.040;3.684;2023-02-11T01:13:34;11.50;78.00
36710;DHT22;22694;51.040;3.684;2023-02-11T01:16:02;11.50;78.00
36710;DHT22;22694;51.040;3.684;2023-02-11T01:18:27;11.50;78.10
36710;DHT22;22694;51.040;3.684;2023-02-11T01:20:53;11.50;78.10
36710;DHT22;22694;51.040;3.684;2023-02-11T01:23:19;11.50;78.10
36710;DHT22;22694;51.040;3.684;2023-02-11T01:25:45;11.50;78.10
36710;DHT22;22694;51.040;3.684;2023-02-11T01:28:21;11.50;78.10
36710;DHT22;22694;51.040;3.684;2023-02-11T01:30:47;11.50;78.10
36710;DHT22;22694;51.040;3.684;2023-02-11T01:33:13;11.50;78.20
36710;DHT22;22694;51.040;3.684;2023-02-11T01:35:39;11.50;78.20
36710;DHT22;22694;51.040;3.684;2023-02-11T01:38:13;11.50;78.10
36710;DHT22;22694;51.040;3.684;2023-02-11T01:40:46;11.50;78.20
36710;DHT22;22694;51.040;3.684;2023-02-11T01:43:11;11.50;78.20
36710;DHT22;22694;51.040;3.684;2023-02-11T01:48:12;11.50;78.20
36710;DHT22;22694;51.040;3.684;2023-02-11T01:50:40;11.50;78.80
36710;DHT22;22694;51.040;3.684;2023-02-11T01:53:07;11.50;78.20
36710;DHT22;22694;51.040;3.684;2023-02-11T01:55:53;11.50;78.30
36710;DHT22;22694;51.040;3.684;2023-02-11T01:58:40;11.50;78.30
36710;DHT22;22694;51.040;3.684;2023-02-11T02:01:08;11.50;78.30
36710;DHT22;22694;51.040;3.684;2023-02-11T02:03:36;11.50;78.30
36710;DHT22;22694;51.040;3.684;2023-02-11T02:06:22;11.50;78.40
36710;DHT22;22694;51.040;3.684;2023-02-11T02:09:05;11.50;78.40
36710;DHT22;22694;51.040;3.684;2023-02-11T02:11:33;11.50;78.40
36710;DHT22;22694;51.040;3.684;2023-02-11T02:13:59;11.50;78.50
36710;DHT22;22694;51.040;3.684;2023-02-11T02:16:30;11.50;78.50
36710;DHT22;22694;51.040;3.684;2023-02-11T02:30:29;11.50;78.60
36710;DHT22;22694;51.040;3.684;2023-02-11T02:41:03;11.50;78.70
36710;DHT22;22694;51.040;3.684;2023-02-11T02:43:31;11.50;78.90
36710;DHT22;22694;51.040;3.684;2023-02-11T02:46:20;11.50;78.90
36710;DHT22;22694;51.040;3.684;2023-02-11T02:48:48;11.50;79.00
36710;DHT22;22694;51.040;3.684;2023-02-11T02:54:34;11.50;78.90
36710;DHT22;22694;51.040;3.684;2023-02-11T02:57:28;11.50;79.00
36710;DHT22;22694;51.040;3.684;2023-02-11T03:02:46;11.50;79.00
36710;DHT22;22694;51.040;3.684;2023-02-11T03:08:06;11.50;79.40
36710;DHT22;22694;51.040;3.684;2023-02-11T03:10:44;11.50;79.40
36710;DHT22;22694;51.040;3.684;2023-02-11T03:13:11;11.50;79.30
36710;DHT22;22694;51.040;3.684;2023-02-11T03:15:44;11.50;79.30
36710;DHT22;22694;51.040;3.684;2023-02-11T03:18:14;11.50;79.20
36710;DHT22;22694;51.040;3.684;2023-02-11T03:20:43;11.50;79.20
36710;DHT22;22694;51.040;3.684;2023-02-11T03:23:15;11.50;79.30
36710;DHT22;22694;51.040;3.684;2023-02-11T03:25:50;11.50;79.30
36710;DHT22;22694;51.040;3.684;2023-02-11T03:28:39;11.50;79.30
36710;DHT22;22694;51.040;3.684;2023-02-11T03:31:21;11.50;79.30
36710;DHT22;22694;51.040;3.684;2023-02-11T03:39:06;11.50;79.20
36710;DHT22;22694;51.040;3.684;2023-02-11T03:41:34;11.50;79.30
36710;DHT22;22694;51.040;3.684;2023-02-11T03:44:01;11.50;79.40
36710;DHT22;22694;51.040;3.684;2023-02-11T03:46:30;11.50;79.40
36710;DHT22;22694;51.040;3.684;2023-02-11T03:49:01;11.50;79.40
36710;DHT22;22694;51.040;3.684;2023-02-11T03:51:28;11.50;79.40
36710;DHT22;22694;51.040;3.684;2023-02-11T03:53:58;11.50;79.50
36710;DHT22;22694;51.040;3.684;2023-02-11T03:56:27;11.50;79.50
36710;DHT22;22694;51.040;3.684;2023-02-11T03:58:54;11.50;79.40
36710;DHT22;22694;51.040;3.684;2023-02-11T04:01:20;11.50;79.60
36710;DHT22;22694;51.040;3.684;2023-02-11T04:03:46;11.50;79.70
36710;DHT22;22694;51.040;3.684;2023-02-11T04:06:11;11.50;79.40
36710;DHT22;22694;51.040;3.684;2023-02-11T04:08:37;11.50;79.30
36710;DHT22;22694;51.040;3.684;2023-02-11T04:11:03;11.50;79.20
36710;DHT22;22694;51.040;3.684;2023-02-11T04:13:29;11.50;79.30
36710;DHT22;22694;51.040;3.684;2023-02-11T04:15:54;11.50;79.30
36710;DHT22;22694;51.040;3.684;2023-02-11T04:18:20;11.50;79.30
36710;DHT22;22694;51.040;3.684;2023-02-11T04:20:46;11.50;79.20
36710;DHT22;22694;51.040;3.684;2023-02-11T04:23:13;11.50;79.10
36710;DHT22;22694;51.040;3.684;2023-02-11T04:25:38;11.60;79.20
36710;DHT22;22694;51.040;3.684;2023-02-11T04:28:04;11.50;79.10
36710;DHT22;22694;51.040;3.684;2023-02-11T04:30:30;11.50;79.10
36710;DHT22;22694;51.040;3.684;2023-02-11T04:32:57;11.50;79.10
36710;DHT22;22694;51.040;3.684;2023-02-11T04:35:22;11.50;79.10
36710;DHT22;22694;51.040;3.684;2023-02-11T04:37:48;11.50;79.10
36710;DHT22;22694;51.040;3.684;2023-02-11T04:40:14;11.50;79.10
36710;DHT22;22694;51.040;3.684;2023-02-11T04:42:39;11.50;79.10
36710;DHT22;22694;51.040;3.684;2023-02-11T04:45:05;11.50;79.10
36710;DHT22;22694;51.040;3.684;2023-02-11T04:47:32;11.50;79.00
36710;DHT22;22694;51.040;3.684;2023-02-11T04:49:58;11.50;79.00
36710;DHT22;22694;51.040;3.684;2023-02-11T04:52:24;11.50;79.10
36710;DHT22;22694;51.040;3.684;2023-02-11T04:54:49;11.50;79.00
36710;DHT22;22694;51.040;3.684;2023-02-11T04:57:15;11.50;79.00
36710;DHT22;22694;51.040;3.684;2023-02-11T04:59:41;11.50;79.20
36710;DHT22;22694;51.040;3.684;2023-02-11T05:02:06;11.50;79.60
36710;DHT22;22694;51.040;3.684;2023-02-11T05:04:32;11.50;80.00
36710;DHT22;22694;51.040;3.684;2023-02-11T05:06:58;11.60;80.10
36710;DHT22;22694;51.040;3.684;2023-02-11T05:09:23;11.50;80.10
36710;DHT22;22694;51.040;3.684;2023-02-11T05:11:49;11.50;80.10
36710;DHT22;22694;51.040;3.684;2023-02-11T05:14:14;12.00;80.30
36710;DHT22;22694;51.040;3.684;2023-02-11T05:16:40;11.50;80.10
36710;DHT22;22694;51.040;3.684;2023-02-11T05:19:06;11.50;80.20
36710;DHT22;22694;51.040;3.684;2023-02-11T05:21:31;11.50;80.30
36710;DHT22;22694;51.040;3.684;2023-02-11T05:23:57;11.50;80.20
36710;DHT22;22694;51.040;3.684;2023-02-11T05:26:23;11.50;80.10
36710;DHT22;22694;51.040;3.684;2023-02-11T05:28:48;11.50;80.10
36710;DHT22;22694;51.040;3.684;2023-02-11T05:31:14;11.50;80.10
36710;DHT22;22694;51.040;3.684;2023-02-11T05:33:41;11.50;80.00
36710;DHT22;22694;51.040;3.684;2023-02-11T05:36:09;11.60;87.30
36710;DHT22;22694;51.040;3.684;2023-02-11T05:38:35;12.00;90.90
36710;DHT22;22694;51.040;3.684;2023-02-11T05:41:02;12.30;89.10
36710;DHT22;22694;51.040;3.684;2023-02-11T05:43:28;12.50;87.30
36710;DHT22;22694;51.040;3.684;2023-02-11T05:45:54;12.50;85.60
36710;DHT22;22694;51.040;3.684;2023-02-11T05:48:19;12.50;84.60
36710;DHT22;22694;51.040;3.684;2023-02-11T05:50:45;12.50;83.90
36710;DHT22;22694;51.040;3.684;2023-02-11T05:53:11;12.40;83.20
36710;DHT22;22694;51.040;3.684;2023-02-11T05:55:36;12.40;82.70
36710;DHT22;22694;51.040;3.684;2023-02-11T05:58:03;12.40;82.70
36710;DHT22;22694;51.040;3.684;2023-02-11T06:00:29;12.40;82.70
36710;DHT22;22694;51.040;3.684;2023-02-11T06:02:54;12.40;82.40
36710;DHT22;22694;51.040;3.684;2023-02-11T06:05:20;12.40;82.60
36710;DHT22;22694;51.040;3.684;2023-02-11T06:07:46;12.40;82.30
36710;DHT22;22694;51.040;3.684;2023-02-11T06:10:12;12.40;82.10
36710;DHT22;22694;51.040;3.684;2023-02-11T06:12:38;12.40;82.20
36710;DHT22;22694;51.040;3.684;2023-02-11T06:15:04;12.40;82.30
36710;DHT22;22694;51.040;3.684;2023-02-11T06:17:30;12.50;82.10
36710;DHT22;22694;51.040;3.684;2023-02-11T06:19:59;12.40;82.10
36710;DHT22;22694;51.040;3.684;2023-02-11T06:22:26;12.40;82.10
36710;DHT22;22694;51.040;3.684;2023-02-11T06:24:51;12.50;82.00
36710;DHT22;22694;51.040;3.684;2023-02-11T06:27:17;12.40;81.50
36710;DHT22;22694;51.040;3.684;2023-02-11T06:29:44;12.50;81.50
36710;DHT22;22694;51.040;3.684;2023-02-11T06:32:10;12.50;81.70
36710;DHT22;22694;51.040;3.684;2023-02-11T06:34:36;12.40;81.10
36710;DHT22;22694;51.040;3.684;2023-02-11T06:37:02;12.40;80.90
36710;DHT22;22694;51.040;3.684;2023-02-11T06:39:27;12.50;80.60
36710;DHT22;22694;51.040;3.684;2023-02-11T06:41:53;12.40;80.20
36710;DHT22;22694;51.040;3.684;2023-02-11T06:44:19;12.40;80.00
36710;DHT22;22694;51.040;3.684;2023-02-11T06:46:44;12.40;80.00
36710;DHT22;22694;51.040;3.684;2023-02-11T06:49:10;12.40;80.00
36710;DHT22;22694;51.040;3.684;2023-02-11T06:51:36;12.40;79.90
36710;DHT22;22694;51.040;3.684;2023-02-11T06:54:03;12.40;79.80
36710;DHT22;22694;51.040;3.684;2023-02-11T06:56:29;12.40;79.70
36710;DHT22;22694;51.040;3.684;2023-02-11T06:58:55;12.40;79.80
36710;DHT22;22694;51.040;3.684;2023-02-11T07:01:22;12.30;79.70
36710;DHT22;22694;51.040;3.684;2023-02-11T07:03:48;12.30;79.80
36710;DHT22;22694;51.040;3.684;2023-02-11T07:06:17;12.30;79.80
36710;DHT22;22694;51.040;3.684;2023-02-11T07:08:44;12.30;79.70
36710;DHT22;22694;51.040;3.684;2023-02-11T07:13:41;12.30;79.70
36710;DHT22;22694;51.040;3.684;2023-02-11T07:16:09;12.20;79.60
36710;DHT22;22694;51.040;3.684;2023-02-11T07:18:35;12.20;79.60
36710;DHT22;22694;51.040;3.684;2023-02-11T07:21:10;12.20;79.60
36710;DHT22;22694;51.040;3.684;2023-02-11T07:23:36;12.20;79.60
36710;DHT22;22694;51.040;3.684;2023-02-11T07:26:06;12.20;79.60
36710;DHT22;22694;51.040;3.684;2023-02-11T07:28:34;12.20;79.50
36710;DHT22;22694;51.040;3.684;2023-02-11T07:31:08;12.10;79.50
36710;DHT22;22694;51.040;3.684;2023-02-11T07:33:35;12.10;79.40
36710;DHT22;22694;51.040;3.684;2023-02-11T07:36:01;12.20;79.60
36710;DHT22;22694;51.040;3.684;2023-02-11T07:38:27;12.20;79.60
36710;DHT22;22694;51.040;3.684;2023-02-11T07:40:52;12.20;79.70
36710;DHT22;22694;51.040;3.684;2023-02-11T07:43:18;12.20;79.60
36710;DHT22;22694;51.040;3.684;2023-02-11T07:45:44;12.20;79.60
36710;DHT22;22694;51.040;3.684;2023-02-11T07:48:09;12.20;79.70
36710;DHT22;22694;51.040;3.684;2023-02-11T07:50:35;12.20;79.70
36710;DHT22;22694;51.040;3.684;2023-02-11T07:53:01;12.20;79.90
36710;DHT22;22694;51.040;3.684;2023-02-11T07:55:27;12.10;79.80
36710;DHT22;22694;51.040;3.684;2023-02-11T07:57:53;12.20;79.90
36710;DHT22;22694;51.040;3.684;2023-02-11T08:00:19;12.20;80.00
36710;DHT22;22694;51.040;3.684;2023-02-11T08:02:44;12.20;79.90
36710;DHT22;22694;51.040;3.684;2023-02-11T08:05:10;12.20;80.00
36710;DHT22;22694;51.040;3.684;2023-02-11T08:07:35;12.20;80.00
36710;DHT22;22694;51.040;3.684;2023-02-11T08:10:01;12.20;79.90
36710;DHT22;22694;51.040;3.684;2023-02-11T08:12:27;12.20;79.90
36710;DHT22;22694;51.040;3.684;2023-02-11T08:14:52;12.30;80.10
36710;DHT22;22694;51.040;3.684;2023-02-11T08:17:18;12.20;80.00
36710;DHT22;22694;51.040;3.684;2023-02-11T08:19:43;12.20;80.00
36710;DHT22;22694;51.040;3.684;2023-02-11T08:22:09;12.30;80.20
36710;DHT22;22694;51.040;3.684;2023-02-11T08:24:35;12.20;80.30
36710;DHT22;22694;51.040;3.684;2023-02-11T08:27:00;12.30;80.60
36710;DHT22;22694;51.040;3.684;2023-02-11T08:29:26;12.30;82.00
36710;DHT22;22694;51.040;3.684;2023-02-11T08:31:52;12.30;82.30
36710;DHT22;22694;51.040;3.684;2023-02-11T08:34:17;12.30;81.10
36710;DHT22;22694;51.040;3.684;2023-02-11T08:36:45;12.30;81.30
36710;DHT22;22694;51.040;3.684;2023-02-11T08:39:16;12.20;80.50
36710;DHT22;22694;51.040;3.684;2023-02-11T08:41:43;12.10;80.20
36710;DHT22;22694;51.040;3.684;2023-02-11T08:44:08;12.00;80.00
36710;DHT22;22694;51.040;3.684;2023-02-11T08:46:34;12.00;80.00
36710;DHT22;22694;51.040;3.684;2023-02-11T08:49:00;11.90;80.00
36710;DHT22;22694;51.040;3.684;2023-02-11T08:51:27;11.90;80.10
36710;DHT22;22694;51.040;3.684;2023-02-11T08:53:55;11.90;80.10
36710;DHT22;22694;51.040;3.684;2023-02-11T08:56:21;11.80;80.20
36710;DHT22;22694;51.040;3.684;2023-02-11T08:58:48;11.80;80.10
36710;DHT22;22694;51.040;3.684;2023-02-11T09:01:16;11.80;80.20
36710;DHT22;22694;51.040;3.684;2023-02-11T09:03:43;12.00;92.40
36710;DHT22;22694;51.040;3.684;2023-02-11T09:06:09;12.60;92.20
36710;DHT22;22694;51.040;3.684;2023-02-11T09:08:37;12.80;90.00
36710;DHT22;22694;51.040;3.684;2023-02-11T09:11:04;12.80;85.30
36710;DHT22;22694;51.040;3.684;2023-02-11T09:13:30;12.60;82.10
36710;DHT22;22694;51.040;3.684;2023-02-11T09:15:57;12.50;81.10
36710;DHT22;22694;51.040;3.684;2023-02-11T09:18:23;12.40;80.90
36710;DHT22;22694;51.040;3.684;2023-02-11T09:20:49;12.30;80.40
36710;DHT22;22694;51.040;3.684;2023-02-11T09:23:14;12.30;80.30
36710;DHT22;22694;51.040;3.684;2023-02-11T09:25:40;12.20;80.30
36710;DHT22;22694;51.040;3.684;2023-02-11T09:28:07;12.20;80.30
36710;DHT22;22694;51.040;3.684;2023-02-11T09:30:35;12.10;80.30
36710;DHT22;22694;51.040;3.684;2023-02-11T09:33:01;12.10;80.50
36710;DHT22;22694;51.040;3.684;2023-02-11T09:35:27;12.10;80.60
36710;DHT22;22694;51.040;3.684;2023-02-11T09:37:52;12.10;80.70
36710;DHT22;22694;51.040;3.684;2023-02-11T09:40:18;12.00;80.70
36710;DHT22;22694;51.040;3.684;2023-02-11T09:42:49;12.00;80.70
36710;DHT22;22694;51.040;3.684;2023-02-11T09:45:22;12.00;80.70
36710;DHT22;22694;51.040;3.684;2023-02-11T09:47:59;12.00;80.70
36710;DHT22;22694;51.040;3.684;2023-02-11T09:50:30;12.00;80.70
36710;DHT22;22694;51.040;3.684;2023-02-11T09:55:31;12.40;95.70
36710;DHT22;22694;51.040;3.684;2023-02-11T09:58:03;12.90;93.80
36710;DHT22;22694;51.040;3.684;2023-02-11T10:00:39;13.50;92.20
36710;DHT22;22694;51.040;3.684;2023-02-11T10:06:16;14.00;89.40
36710;DHT22;22694;51.040;3.684;2023-02-11T10:16:57;13.40;83.00
36710;DHT22;22694;51.040;3.684;2023-02-11T10:22:20;13.20;81.90
36710;DHT22;22694;51.040;3.684;2023-02-11T10:24:55;13.10;81.50
36710;DHT22;22694;51.040;3.684;2023-02-11T10:27:30;13.10;82.80
36710;DHT22;22694;51.040;3.684;2023-02-11T10:30:14;13.00;81.70
36710;DHT22;22694;51.040;3.684;2023-02-11T10:32:48;12.90;81.50
36710;DHT22;22694;51.040;3.684;2023-02-11T10:35:20;12.90;81.60
36710;DHT22;22694;51.040;3.684;2023-02-11T10:37:47;12.90;81.70
36710;DHT22;22694;51.040;3.684;2023-02-11T10:40:18;12.80;81.70
36710;DHT22;22694;51.040;3.684;2023-02-11T10:42:49;12.80;81.70
36710;DHT22;22694;51.040;3.684;2023-02-11T10:45:49;12.80;81.80
36710;DHT22;22694;51.040;3.684;2023-02-11T10:51:26;12.80;82.80
36710;DHT22;22694;51.040;3.684;2023-02-11T10:56:43;13.10;90.00
36710;DHT22;22694;51.040;3.684;2023-02-11T10:59:14;13.40;90.40
36710;DHT22;22694;51.040;3.684;2023-02-11T11:01:45;13.60;90.30
36710;DHT22;22694;51.040;3.684;2023-02-11T11:07:21;13.70;85.10
36710;DHT22;22694;51.040;3.684;2023-02-11T11:15:41;13.30;80.80
36710;DHT22;22694;51.040;3.684;2023-02-11T11:17:43;13.10;80.70
36710;DHT22;22694;51.040;3.684;2023-02-11T11:20:27;13.00;80.90
36710;DHT22;22694;51.040;3.684;2023-02-11T11:23:14;13.00;81.10
36710;DHT22;22694;51.040;3.684;2023-02-11T11:25:43;12.90;81.30
36710;DHT22;22694;51.040;3.684;2023-02-11T11:28:30;12.90;81.50
36710;DHT22;22694;51.040;3.684;2023-02-11T11:30:56;12.90;81.70
36710;DHT22;22694;51.040;3.684;2023-02-11T11:33:28;13.10;89.10
36710;DHT22;22694;51.040;3.684;2023-02-11T11:36:07;13.20;86.70
36710;DHT22;22694;51.040;3.684;2023-02-11T11:38:37;13.30;86.20
36710;DHT22;22694;51.040;3.684;2023-02-11T11:41:28;13.20;84.40
36710;DHT22;22694;51.040;3.684;2023-02-11T11:46:45;13.10;82.80
36710;DHT22;22694;51.040;3.684;2023-02-11T11:51:50;13.00;82.50
36710;DHT22;22694;51.040;3.684;2023-02-11T11:54:19;13.00;82.50
36710;DHT22;22694;51.040;3.684;2023-02-11T11:57:16;12.90;82.40
36710;DHT22;22694;51.040;3.684;2023-02-11T11:59:43;12.90;82.30
36710;DHT22;22694;51.040;3.684;2023-02-11T12:02:20;12.90;82.40
36710;DHT22;22694;51.040;3.684;2023-02-11T12:12:52;12.90;82.50
36710;DHT22;22694;51.040;3.684;2023-02-11T12:18:19;12.90;82.20
36710;DHT22;22694;51.040;3.684;2023-02-11T12:23:27;13.00;83.60
36710;DHT22;22694;51.040;3.684;2023-02-11T12:26:03;13.00;82.70
36710;DHT22;22694;51.040;3.684;2023-02-11T12:29:54;13.00;82.30
36710;DHT22;22694;51.040;3.684;2023-02-11T12:37:02;13.00;82.10
36710;DHT22;22694;51.040;3.684;2023-02-11T12:39:52;13.00;82.10
36710;DHT22;22694;51.040;3.684;2023-02-11T12:45:48;13.10;83.60
36710;DHT22;22694;51.040;3.684;2023-02-11T12:58:58;13.10;82.60
36710;DHT22;22694;51.040;3.684;2023-02-11T13:01:32;13.10;82.60
36710;DHT22;22694;51.040;3.684;2023-02-11T13:04:11;13.10;82.60
36710;DHT22;22694;51.040;3.684;2023-02-11T13:06:56;13.10;82.70
36710;DHT22;22694;51.040;3.684;2023-02-11T13:09:34;13.10;82.70
36710;DHT22;22694;51.040;3.684;2023-02-11T13:12:03;13.10;82.70
36710;DHT22;22694;51.040;3.684;2023-02-11T13:14:52;13.10;82.80
36710;DHT22;22694;51.040;3.684;2023-02-11T13:17:28;13.10;83.10
36710;DHT22;22694;51.040;3.684;2023-02-11T13:20:00;13.10;83.30
36710;DHT22;22694;51.040;3.684;2023-02-11T13:22:33;13.10;83.40
36710;DHT22;22694;51.040;3.684;2023-02-11T13:25:23;13.10;83.50
36710;DHT22;22694;51.040;3.684;2023-02-11T13:28:02;13.10;83.30
36710;DHT22;22694;51.040;3.684;2023-02-11T13:30:31;13.10;83.40
36710;DHT22;22694;51.040;3.684;2023-02-11T13:37:56;13.20;83.70
36710;DHT22;22694;51.040;3.684;2023-02-11T13:40:26;13.20;83.40
36710;DHT22;22694;51.040;3.684;2023-02-11T13:42:57;13.20;84.50
36710;DHT22;22694;51.040;3.684;2023-02-11T13:45:32;13.40;85.80
36710;DHT22;22694;51.040;3.684;2023-02-11T13:48:01;13.30;84.50
36710;DHT22;22694;51.040;3.684;2023-02-11T13:50:30;13.30;83.60
36710;DHT22;22694;51.040;3.684;2023-02-11T13:52:59;13.30;83.80
36710;DHT22;22694;51.040;3.684;2023-02-11T13:55:25;13.40;84.60
36710;DHT22;22694;51.040;3.684;2023-02-11T14:06:16;13.30;82.80
36710;DHT22;22694;51.040;3.684;2023-02-11T14:14:25;13.30;83.40
36710;DHT22;22694;51.040;3.684;2023-02-11T14:19:42;13.30;82.90
36710;DHT22;22694;51.040;3.684;2023-02-11T14:22:25;13.20;82.80
36710;DHT22;22694;51.040;3.684;2023-02-11T14:24:53;13.20;82.70
36710;DHT22;22694;51.040;3.684;2023-02-11T14:27:41;13.20;82.70
36710;DHT22;22694;51.040;3.684;2023-02-11T14:35:50;13.20;82.50
36710;DHT22;22694;51.040;3.684;2023-02-11T14:41:37;13.20;82.50
36710;DHT22;22694;51.040;3.684;2023-02-11T14:44:06;13.20;82.50
36710;DHT22;22694;51.040;3.684;2023-02-11T14:46:33;13.20;82.40
36710;DHT22;22694;51.040;3.684;2023-02-11T14:49:00;13.20;82.40
36710;DHT22;22694;51.040;3.684;2023-02-11T14:51:34;13.20;82.40
36710;DHT22;22694;51.040;3.684;2023-02-11T14:54:21;13.20;82.40
36710;DHT22;22694;51.040;3.684;2023-02-11T14:57:12;13.20;82.40
36710;DHT22;22694;51.040;3.684;2023-02-11T14:59:38;13.20;82.40
36710;DHT22;22694;51.040;3.684;2023-02-11T15:02:20;13.20;82.40
36710;DHT22;22694;51.040;3.684;2023-02-11T15:04:46;13.20;82.40
36710;DHT22;22694;51.040;3.684;2023-02-11T15:07:12;13.20;82.40
36710;DHT22;22694;51.040;3.684;2023-02-11T15:09:50;13.20;82.40
36710;DHT22;22694;51.040;3.684;2023-02-11T15:12:24;13.20;82.30
36710;DHT22;22694;51.040;3.684;2023-02-11T15:14:56;13.20;82.40
36710;DHT22;22694;51.040;3.684;2023-02-11T15:17:25;13.20;82.40
36710;DHT22;22694;51.040;3.684;2023-02-11T15:19:54;13.20;82.40
36710;DHT22;22694;51.040;3.684;2023-02-11T15:22:28;13.20;82.40
36710;DHT22;22694;51.040;3.684;2023-02-11T15:25:08;13.20;82.40
36710;DHT22;22694;51.040;3.684;2023-02-11T15:27:49;13.20;82.40
36710;DHT22;22694;51.040;3.684;2023-02-11T15:30:30;13.20;82.40
36710;DHT22;22694;51.040;3.684;2023-02-11T15:32:59;13.30;89.20
36710;DHT22;22694;51.040;3.684;2023-02-11T15:35:32;13.70;91.40
36710;DHT22;22694;51.040;3.684;2023-02-11T15:38:01;14.20;90.60
36710;DHT22;22694;51.040;3.684;2023-02-11T15:40:29;14.50;89.30
36710;DHT22;22694;51.040;3.684;2023-02-11T15:43:02;14.50;86.80
36710;DHT22;22694;51.040;3.684;2023-02-11T15:45:32;14.40;85.80
36710;DHT22;22694;51.040;3.684;2023-02-11T15:48:06;14.20;84.80
36710;DHT22;22694;51.040;3.684;2023-02-11T15:50:34;14.10;83.70
36710;DHT22;22694;51.040;3.684;2023-02-11T15:55:41;13.90;82.80
36710;DHT22;22694;51.040;3.684;2023-02-11T15:58:08;13.80;82.70
36710;DHT22;22694;51.040;3.684;2023-02-11T16:00:36;13.80;82.60
36710;DHT22;22694;51.040;3.684;2023-02-11T16:03:03;13.70;82.60
36710;DHT22;22694;51.040;3.684;2023-02-11T16:05:32;13.70;82.70
36710;DHT22;22694;51.040;3.684;2023-02-11T16:08:00;13.90;88.40
36710;DHT22;22694;51.040;3.684;2023-02-11T16:10:36;14.20;87.60
36710;DHT22;22694;51.040;3.684;2023-02-11T16:18:01;15.00;84.00
36710;DHT22;22694;51.040;3.684;2023-02-11T16:20:27;15.20;83.50
36710;DHT22;22694;51.040;3.684;2023-02-11T16:22:53;15.50;82.30
36710;DHT22;22694;51.040;3.684;2023-02-11T16:25:20;15.70;81.30
36710;DHT22;22694;51.040;3.684;2023-02-11T16:27:52;15.60;80.90
36710;DHT22;22694;51.040;3.684;2023-02-11T16:30:32;15.50;80.90
36710;DHT22;22694;51.040;3.684;2023-02-11T16:32:58;15.30;81.00
36710;DHT22;22694;51.040;3.684;2023-02-11T16:35:23;15.20;81.00
36710;DHT22;22694;51.040;3.684;2023-02-11T16:37:49;15.00;81.20
36710;DHT22;22694;51.040;3.684;2023-02-11T16:40:15;15.00;81.70
36710;DHT22;22694;51.040;3.684;2023-02-11T16:42:41;14.90;80.70
36710;DHT22;22694;51.040;3.684;2023-02-11T16:45:07;15.00;85.40
36710;DHT22;22694;51.040;3.684;2023-02-11T16:47:34;15.10;84.80
36710;DHT22;22694;51.040;3.684;2023-02-11T16:50:00;15.10;84.80
36710;DHT22;22694;51.040;3.684;2023-02-11T16:52:27;15.10;84.90
36710;DHT22;22694;51.040;3.684;2023-02-11T16:54:54;15.00;84.50
36710;DHT22;22694;51.040;3.684;2023-02-11T16:57:23;14.90;84.30
36710;DHT22;22694;51.040;3.684;2023-02-11T16:59:50;14.90;84.40
36710;DHT22;22694;51.040;3.684;2023-02-11T17:02:19;14.90;83.70
36710;DHT22;22694;51.040;3.684;2023-02-11T17:04:47;14.80;83.30
36710;DHT22;22694;51.040;3.684;2023-02-11T17:07:13;14.80;83.10
36710;DHT22;22694;51.040;3.684;2023-02-11T17:09:38;14.70;83.10
36710;DHT22;22694;51.040;3.684;2023-02-11T17:12:04;14.70;82.90
36710;DHT22;22694;51.040;3.684;2023-02-11T17:14:30;14.70;82.80
36710;DHT22;22694;51.040;3.684;2023-02-11T17:16:56;14.60;83.00
36710;DHT22;22694;51.040;3.684;2023-02-11T17:19:22;14.60;82.90
36710;DHT22;22694;51.040;3.684;2023-02-11T17:21:50;14.60;83.30
36710;DHT22;22694;51.040;3.684;2023-02-11T17:24:16;14.80;90.30
36710;DHT22;22694;51.040;3.684;2023-02-11T17:26:43;15.10;89.60
36710;DHT22;22694;51.040;3.684;2023-02-11T17:29:15;15.10;87.80
36710;DHT22;22694;51.040;3.684;2023-02-11T17:31:42;14.90;86.50
36710;DHT22;22694;51.040;3.684;2023-02-11T17:34:08;14.80;84.50
36710;DHT22;22694;51.040;3.684;2023-02-11T17:36:34;14.50;83.70
36710;DHT22;22694;51.040;3.684;2023-02-11T17:39:00;14.40;83.40
36710;DHT22;22694;51.040;3.684;2023-02-11T17:41:26;14.30;83.50
36710;DHT22;22694;51.040;3.684;2023-02-11T17:43:52;14.20;83.60
36710;DHT22;22694;51.040;3.684;2023-02-11T17:46:18;14.10;83.90
36710;DHT22;22694;51.040;3.684;2023-02-11T17:48:44;14.00;84.00
36710;DHT22;22694;51.040;3.684;2023-02-11T17:51:24;14.00;84.10
36710;DHT22;22694;51.040;3.684;2023-02-11T17:53:52;13.90;84.10
36710;DHT22;22694;51.040;3.684;2023-02-11T17:56:18;13.80;84.10
36710;DHT22;22694;51.040;3.684;2023-02-11T17:58:44;13.80;84.20
36710;DHT22;22694;51.040;3.684;2023-02-11T18:01:10;13.80;84.20
36710;DHT22;22694;51.040;3.684;2023-02-11T18:03:36;13.70;84.10
36710;DHT22;22694;51.040;3.684;2023-02-11T18:06:04;13.70;84.10
36710;DHT22;22694;51.040;3.684;2023-02-11T18:08:31;13.70;84.10